METAR AND TAF INFORMATION
METAR FOR DAOI
ADDS - METARS form results

(0442 UTC 18 January 2020)
Data provider http://aviationweather.gov/metar/data/
 
METAR text: DAOI 180400Z 05008KT CAVOK 07/04 Q1032
Conditions at: DAOI (CHLEF , DZ) observed 0400 UTC 18 January 2020
Temperature: 7.0°C (45°F)
Dewpoint: 4.0°C (39°F) [RH = 81%]
Pressure (altimeter): 30.47 inches Hg (1032.0 mb)
Winds: from the NE (50 degrees) at 9 MPH (8 knots; 4.1 m/s)
Visibility: 6 or more miles (10+ km)
Ceiling: ceiling and visibility are OK
Clouds: unknown
Weather: no significant weather observed at this time

Forecast for: DAOI (CHLEF , DZ)
Text: TAF DAOI 172300Z 1800/1824 VRB02KT CAVOK
Forecast period: 0000 UTC 18 January 2020 to 0000 UTC 19 January 2020
Forecast type: FROM: standard forecast or significant change
Winds: variable direction winds at 2 MPH (2 knots; 1.0 m/s)
Visibility: 6 or more miles 10+ km)
Ceiling: unknown
Clouds: missing
Weather: NSW  (no significant weather)

 AIRPORT MAP

 RUNWAY INFORMATION
Runway 07 Runway length 5413 ft Runway width 98 ft
Runway elevation 463 ft Runway displaced threshold 0 ft Runway heading 66
Runway 25 Runway length 5413 ft Runway width 98 ft
Runway elevation 463 ft Runway displaced threshold 0 ft Runway heading 246

 AIRPORT FREQUENCIES
Type TWR Name TWR Frequency 119 MHZ

 AIRPORT NEAR NAVIGATION AIDS



Powered by Virtual Airlines Manager [v2.6.2]